Time;durP1;ratioP1;P1;durP2;ratioP2;P2;SDS_P1;SDS_P2;PMS_P1;PMS_P2;Temp;Humidity;BMP_temperature;BMP_pressure;BME280_temperature;BME280_humidity;BME280_pressure;Samples;Min_cycle;Max_cycle;Signal;HPM_P1;HPM_P2
2023/09/04 00:11:08;;;;;;;5.57;3.53;;;15.60;99.90;;;;;;1547380;23;20467;-90
2023/09/04 00:13:39;;;;;;;5.28;3.47;;;15.70;99.90;;;;;;4991473;28;20303;-92
2023/09/04 00:16:06;;;;;;;5.70;3.65;;;15.60;99.90;;;;;;5002115;28;20232;-92
2023/09/04 00:18:33;;;;;;;5.88;2.97;;;15.60;99.90;;;;;;4998798;28;20286;-92
2023/09/04 00:21:00;;;;;;;3.17;2.80;;;15.50;99.90;;;;;;4984067;28;20601;-92
2023/09/04 00:23:27;;;;;;;3.80;3.13;;;15.50;99.90;;;;;;4994069;28;20206;-92
2023/09/04 00:25:55;;;;;;;3.88;3.30;;;15.60;99.90;;;;;;4989134;28;20263;-92
2023/09/04 00:28:24;;;;;;;3.97;3.40;;;15.50;99.90;;;;;;5005906;28;20200;-92
2023/09/04 00:30:51;;;;;;;4.65;3.20;;;15.50;99.90;;;;;;4988985;28;20204;-92
2023/09/04 00:33:18;;;;;;;4.32;3.10;;;15.40;99.90;;;;;;4996963;28;20239;-92
2023/09/04 00:35:46;;;;;;;3.13;2.80;;;15.40;99.90;;;;;;4991917;28;20196;-91
2023/09/04 00:38:13;;;;;;;4.32;3.08;;;15.30;99.90;;;;;;4985805;28;20288;-92
2023/09/04 00:40:40;;;;;;;3.55;2.97;;;15.30;99.90;;;;;;4994730;28;20200;-92
2023/09/04 00:43:06;;;;;;;3.20;2.90;;;15.30;99.90;;;;;;4986240;28;20287;-92
2023/09/04 00:45:36;;;;;;;3.40;3.03;;;15.30;99.90;;;;;;4992922;28;20216;-92
2023/09/04 00:48:04;;;;;;;3.22;2.90;;;15.20;99.90;;;;;;4996970;28;20218;-92
2023/09/04 00:50:32;;;;;;;3.97;3.42;;;15.20;99.90;;;;;;4993573;28;20231;-92
2023/09/04 00:53:05;;;;;;;4.97;3.15;;;15.20;99.90;;;;;;4963607;28;20204;-92
2023/09/04 00:55:33;;;;;;;4.50;3.13;;;15.20;99.90;;;;;;4978449;28;20205;-92
2023/09/04 00:58:00;;;;;;;2.83;2.63;;;15.30;99.90;;;;;;4971101;28;20193;-92
2023/09/04 01:00:28;;;;;;;4.45;3.20;;;15.30;99.90;;;;;;4969202;28;20284;-92
2023/09/04 01:03:04;;;;;;;3.17;2.78;;;15.20;99.90;;;;;;4970190;28;20252;-92
2023/09/04 01:05:32;;;;;;;3.92;3.10;;;15.20;99.90;;;;;;4971999;28;20204;-92
2023/09/04 01:07:59;;;;;;;5.40;3.00;;;15.20;99.90;;;;;;4986218;28;20228;-92
2023/09/04 01:10:33;;;;;;;4.65;2.90;;;15.20;99.90;;;;;;4996659;28;20191;-92
2023/09/04 01:13:05;;;;;;;4.00;3.10;;;15.20;99.90;;;;;;4981040;28;20224;-92
2023/09/04 01:15:33;;;;;;;5.25;3.10;;;15.20;99.90;;;;;;4986617;28;20201;-92
2023/09/04 01:18:01;;;;;;;3.30;2.97;;;15.20;99.90;;;;;;4978891;28;20196;-92
2023/09/04 01:20:31;;;;;;;3.40;3.10;;;15.10;99.90;;;;;;4959609;28;20490;-92
2023/09/04 01:23:00;;;;;;;6.05;2.83;;;15.10;99.90;;;;;;4993603;28;20204;-91
2023/09/04 01:25:39;;;;;;;4.40;2.92;;;15.10;99.90;;;;;;4978637;28;20200;-92
2023/09/04 01:28:19;;;;;;;2.97;2.67;;;15.10;99.90;;;;;;4969820;28;20203;-91
2023/09/04 01:30:56;;;;;;;5.22;3.05;;;15.10;99.90;;;;;;4975889;28;20205;-92
2023/09/04 01:33:29;;;;;;;3.20;2.90;;;15.00;99.90;;;;;;4960834;28;20243;-92
2023/09/04 01:38:47;;;;;;;3.08;2.75;;;15.00;99.90;;;;;;4971990;28;20220;-92
2023/09/04 01:41:14;;;;;;;6.35;2.70;;;15.00;99.90;;;;;;4965830;28;20200;-92
2023/09/04 01:43:41;;;;;;;3.40;2.70;;;15.00;99.90;;;;;;4976361;28;20208;-91
2023/09/04 01:46:08;;;;;;;3.60;2.70;;;15.00;99.90;;;;;;4970948;28;20202;-92
2023/09/04 01:48:36;;;;;;;5.32;2.95;;;14.90;99.90;;;;;;4969168;28;20676;-92
2023/09/04 01:51:04;;;;;;;5.60;2.92;;;14.90;99.90;;;;;;4972960;28;20224;-92
2023/09/04 01:53:37;;;;;;;3.28;2.97;;;14.80;99.90;;;;;;4977467;28;20206;-92
2023/09/04 01:56:04;;;;;;;3.00;2.70;;;14.80;99.90;;;;;;4971197;28;20216;-91
2023/09/04 01:58:31;;;;;;;3.10;2.80;;;14.70;99.90;;;;;;4971522;28;20221;-92
2023/09/04 02:00:58;;;;;;;3.88;2.90;;;14.70;99.90;;;;;;4974326;28;20207;-92
2023/09/04 02:03:25;;;;;;;6.28;2.65;;;14.60;99.90;;;;;;4975193;28;20533;-92
2023/09/04 02:05:52;;;;;;;5.10;2.90;;;14.60;99.90;;;;;;4976130;28;20200;-92
2023/09/04 02:08:21;;;;;;;2.97;2.75;;;14.60;99.90;;;;;;4971314;28;20212;-92
2023/09/04 02:10:48;;;;;;;3.35;2.75;;;14.60;99.90;;;;;;4963674;28;20196;-92
2023/09/04 02:13:15;;;;;;;4.35;2.95;;;14.60;99.90;;;;;;4969216;28;20208;-92
2023/09/04 02:15:42;;;;;;;6.13;2.90;;;14.60;99.90;;;;;;4972035;28;20243;-92
2023/09/04 02:18:09;;;;;;;3.75;2.97;;;14.50;99.90;;;;;;4969206;28;20599;-92
2023/09/04 02:20:36;;;;;;;3.03;2.60;;;14.50;99.90;;;;;;4988968;28;20200;-92
2023/09/04 02:23:04;;;;;;;4.72;3.03;;;14.50;99.90;;;;;;4965960;28;20650;-92
2023/09/04 02:25:32;;;;;;;3.88;2.72;;;14.50;99.90;;;;;;4970719;28;20296;-92
2023/09/04 02:27:59;;;;;;;4.60;3.00;;;14.50;99.90;;;;;;4980757;28;20205;-92
2023/09/04 02:30:26;;;;;;;3.70;2.95;;;14.50;99.90;;;;;;4952200;29;20846;-92
2023/09/04 02:32:58;;;;;;;3.47;2.75;;;14.50;99.90;;;;;;4973476;28;20204;-91
2023/09/04 02:35:25;;;;;;;5.22;3.00;;;14.50;99.90;;;;;;4971222;28;20304;-92
2023/09/04 02:37:52;;;;;;;3.90;2.83;;;14.60;99.90;;;;;;4974144;28;20201;-91
2023/09/04 02:40:19;;;;;;;3.78;2.90;;;14.50;99.90;;;;;;4971028;28;20223;-92
2023/09/04 02:42:49;;;;;;;3.88;2.92;;;14.50;99.90;;;;;;4975459;28;20232;-92
2023/09/04 02:45:38;;;;;;;3.33;2.97;;;14.40;99.90;;;;;;4968755;28;20204;-92
2023/09/04 02:48:05;;;;;;;4.18;2.83;;;14.40;99.90;;;;;;4968059;28;20211;-92
2023/09/04 02:50:32;;;;;;;6.38;3.08;;;14.40;99.90;;;;;;4977190;28;20584;-92
2023/09/04 02:52:59;;;;;;;4.60;3.13;;;14.40;99.90;;;;;;4971563;28;20205;-92
2023/09/04 02:55:28;;;;;;;4.47;2.90;;;14.40;99.90;;;;;;4976279;28;20295;-92
2023/09/04 02:57:57;;;;;;;5.25;3.30;;;14.60;99.90;;;;;;4974770;28;20650;-92
2023/09/04 03:00:24;;;;;;;5.50;3.60;;;14.70;99.90;;;;;;4965762;28;20268;-92
2023/09/04 03:02:51;;;;;;;3.75;3.35;;;14.70;99.90;;;;;;4974723;28;20645;-92
2023/09/04 03:05:18;;;;;;;4.05;3.65;;;14.60;99.90;;;;;;4966213;28;20204;-92
2023/09/04 03:07:46;;;;;;;3.65;3.28;;;14.50;99.90;;;;;;4971644;28;20196;-92
2023/09/04 03:10:13;;;;;;;4.88;3.78;;;14.40;99.90;;;;;;4983852;28;20247;-92
2023/09/04 03:12:39;;;;;;;6.97;3.40;;;14.40;99.90;;;;;;4989170;28;20212;-92
2023/09/04 03:15:14;;;;;;;4.53;3.85;;;14.40;99.90;;;;;;4969945;28;20197;-92
2023/09/04 03:18:01;;;;;;;5.43;4.03;;;14.40;99.90;;;;;;4979352;28;20223;-92
2023/09/04 03:20:28;;;;;;;4.40;4.00;;;14.40;99.90;;;;;;4968608;28;20232;-92
2023/09/04 03:22:55;;;;;;;5.85;4.13;;;14.40;99.90;;;;;;4972876;28;20216;-92
2023/09/04 03:25:25;;;;;;;5.30;3.80;;;14.40;99.90;;;;;;4965679;28;20207;-92
2023/09/04 03:27:52;;;;;;;4.82;4.00;;;14.40;99.90;;;;;;4970257;28;20260;-92
2023/09/04 03:30:20;;;;;;;4.15;3.75;;;14.50;99.90;;;;;;4980377;28;20203;-92
2023/09/04 03:32:49;;;;;;;6.60;4.40;;;14.50;99.90;;;;;;4972357;28;20207;-92
2023/09/04 03:35:23;;;;;;;4.82;4.32;;;14.70;99.90;;;;;;4996055;28;20278;-92
2023/09/04 03:37:54;;;;;;;5.45;3.90;;;14.70;99.90;;;;;;4975007;28;20569;-92
2023/09/04 03:43:59;;;;;;;4.88;4.43;;;14.70;99.90;;;;;;4959858;28;20724;-92
2023/09/04 03:49:09;;;;;;;6.65;5.00;;;14.50;99.90;;;;;;4977541;28;20657;-92
2023/09/04 03:51:36;;;;;;;5.65;5.15;;;14.40;99.90;;;;;;4955956;28;20220;-92
2023/09/04 03:54:11;;;;;;;5.68;5.05;;;14.40;99.90;;;;;;4974817;28;20211;-92
2023/09/04 03:56:38;;;;;;;6.57;4.95;;;14.30;99.90;;;;;;4975365;28;20200;-92
2023/09/04 03:59:05;;;;;;;6.18;5.57;;;14.30;99.90;;;;;;4976247;28;20228;-92
2023/09/04 04:04:15;;;;;;;5.43;4.80;;;14.40;99.90;;;;;;4973340;28;20201;-92
2023/09/04 04:06:42;;;;;;;5.80;5.20;;;14.40;99.90;;;;;;4981119;28;20206;-92
2023/09/04 04:09:11;;;;;;;5.95;5.35;;;14.50;99.90;;;;;;4980638;28;20201;-92
2023/09/04 04:11:38;;;;;;;7.38;5.30;;;14.40;99.90;;;;;;4980764;28;20299;-92
2023/09/04 04:14:05;;;;;;;8.77;5.63;;;14.40;99.90;;;;;;4960847;28;20363;-92
2023/09/04 04:19:16;;;;;;;6.85;5.20;;;14.40;99.90;;;;;;4983633;28;20299;-92
2023/09/04 04:21:43;;;;;;;6.15;5.53;;;14.50;99.90;;;;;;4977419;28;20197;-92
2023/09/04 04:24:09;;;;;;;6.38;4.88;;;14.60;99.90;;;;;;4999964;28;20244;-93
2023/09/04 04:26:39;;;;;;;5.45;4.95;;;14.60;99.90;;;;;;5001908;28;20222;-92
2023/09/04 04:29:06;;;;;;;6.50;5.00;;;14.70;99.90;;;;;;4997491;28;20665;-92
2023/09/04 04:31:34;;;;;;;5.40;4.90;;;14.60;99.90;;;;;;4981543;28;20208;-92
2023/09/04 04:34:01;;;;;;;5.82;5.32;;;14.60;99.90;;;;;;4978498;28;20193;-92
2023/09/04 04:36:28;;;;;;;6.82;5.95;;;14.50;99.90;;;;;;4967669;28;20204;-92
2023/09/04 04:38:55;;;;;;;6.07;5.22;;;14.60;99.90;;;;;;4979319;28;20212;-91
2023/09/04 04:41:22;;;;;;;6.38;5.78;;;14.50;99.90;;;;;;4979790;28;20208;-92
2023/09/04 04:43:49;;;;;;;6.05;5.47;;;14.60;99.90;;;;;;4979662;28;20211;-92
2023/09/04 04:46:17;;;;;;;6.57;5.07;;;14.60;99.90;;;;;;4972763;28;20292;-92
2023/09/04 04:48:45;;;;;;;6.60;5.95;;;14.70;99.90;;;;;;4973090;28;20219;-92
2023/09/04 04:51:12;;;;;;;7.43;6.63;;;14.60;99.90;;;;;;4966234;28;20312;-93
2023/09/04 04:53:39;;;;;;;7.97;7.00;;;14.50;99.90;;;;;;4982259;28;20207;-93
2023/09/04 04:56:06;;;;;;;9.05;7.10;;;14.40;99.90;;;;;;4962103;28;20208;-92
2023/09/04 04:58:33;;;;;;;8.30;7.50;;;14.40;99.90;;;;;;4962735;28;20193;-93
2023/09/04 05:01:06;;;;;;;11.73;8.20;;;14.40;99.90;;;;;;4962533;28;20213;-92
2023/09/04 05:07:02;;;;;;;9.43;8.52;;;14.40;99.90;;;;;;4962482;29;20172;-92
2023/09/04 05:09:29;;;;;;;11.50;8.30;;;14.50;99.90;;;;;;4980493;28;20211;-92
2023/09/04 05:11:57;;;;;;;8.90;8.00;;;14.50;99.90;;;;;;4984049;28;20220;-93
2023/09/04 05:14:25;;;;;;;8.90;7.38;;;14.50;99.90;;;;;;4999235;28;20222;-92
2023/09/04 05:16:51;;;;;;;8.20;7.40;;;14.60;99.90;;;;;;4976086;28;20648;-91
2023/09/04 05:19:19;;;;;;;10.00;8.63;;;14.60;99.90;;;;;;4957594;29;20205;-92
2023/09/04 05:21:46;;;;;;;8.30;7.50;;;14.60;99.90;;;;;;4961529;28;20295;-91
2023/09/04 05:32:22;;;;;;;7.53;6.82;;;14.80;99.90;;;;;;4973847;28;20548;-93
2023/09/04 05:35:09;;;;;;;8.90;7.03;;;14.80;99.90;;;;;;4985264;28;20208;-93
2023/09/04 05:37:37;;;;;;;6.30;5.72;;;14.90;99.90;;;;;;4972257;28;20205;-90
2023/09/04 05:43:08;;;;;;;8.82;6.82;;;15.20;99.90;;;;;;4976861;28;20243;-93
2023/09/04 05:45:35;;;;;;;6.90;6.22;;;15.20;99.90;;;;;;4983693;28;20223;-93
2023/09/04 05:48:09;;;;;;;9.38;6.97;;;15.10;99.90;;;;;;4975419;28;20204;-93
2023/09/04 05:50:36;;;;;;;7.50;6.70;;;15.20;99.90;;;;;;4975366;28;20224;-92
2023/09/04 05:53:03;;;;;;;7.07;6.38;;;15.10;99.90;;;;;;4973567;28;20702;-94
2023/09/04 05:55:32;;;;;;;7.95;6.50;;;15.10;99.90;;;;;;4982782;28;20292;-93
2023/09/04 05:57:59;;;;;;;8.65;6.28;;;15.20;99.90;;;;;;4983736;28;20200;-93
2023/09/04 06:00:25;;;;;;;10.02;6.70;;;15.30;99.90;;;;;;4981908;28;20221;-92
2023/09/04 06:02:54;;;;;;;6.57;5.90;;;15.30;99.90;;;;;;4990045;28;20208;-93
2023/09/04 06:05:21;;;;;;;7.25;6.10;;;15.30;99.90;;;;;;4976260;28;21143;-92
2023/09/04 06:07:50;;;;;;;8.88;6.35;;;15.50;99.90;;;;;;4975861;28;20198;-93
2023/09/04 06:10:17;;;;;;;9.43;6.30;;;15.60;99.90;;;;;;4977506;28;20273;-92
2023/09/04 06:15:28;;;;;;;6.53;5.70;;;15.60;99.90;;;;;;4979502;28;20220;-93
2023/09/04 06:20:36;;;;;;;6.43;5.65;;;15.60;99.90;;;;;;4984843;28;20255;-94
2023/09/04 06:23:04;;;;;;;6.15;5.55;;;15.70;99.90;;;;;;4981891;28;20264;-93
2023/09/04 06:25:30;;;;;;;6.32;5.72;;;15.90;99.90;;;;;;4978406;28;20304;-93
2023/09/04 06:27:59;;;;;;;8.07;5.95;;;16.10;99.90;;;;;;4979239;28;20283;-93
2023/09/04 06:30:26;;;;;;;9.10;6.15;;;16.30;99.90;;;;;;4979747;28;20213;-93
2023/09/04 06:32:53;;;;;;;8.45;5.90;;;16.20;99.90;;;;;;4992339;28;20233;-93
2023/09/04 06:35:25;;;;;;;11.45;5.65;;;16.30;99.90;;;;;;4977947;28;20244;-92
2023/09/04 06:37:52;;;;;;;8.02;5.88;;;16.50;99.90;;;;;;4979333;28;20209;-93
2023/09/04 06:40:21;;;;;;;9.55;5.78;;;16.50;99.90;;;;;;4982543;28;20252;-94
2023/09/04 06:42:48;;;;;;;6.88;5.70;;;16.60;99.90;;;;;;4962165;28;20212;-92
2023/09/04 06:45:21;;;;;;;6.85;5.65;;;16.60;99.90;;;;;;4958412;28;20227;-90
2023/09/04 06:47:49;;;;;;;5.45;4.93;;;16.80;99.90;;;;;;4982710;28;20287;-93
2023/09/04 06:50:16;;;;;;;6.82;4.93;;;16.80;99.90;;;;;;4978100;28;20201;-92
2023/09/04 06:52:45;;;;;;;6.07;5.20;;;16.70;99.90;;;;;;4968868;28;20228;-93
2023/09/04 06:57:40;;;;;;;6.80;4.97;;;17.00;99.90;;;;;;4981897;28;20221;-94
2023/09/04 07:00:10;;;;;;;10.05;5.50;;;16.90;99.90;;;;;;4987431;28;20228;-93
2023/09/04 07:15:38;;;;;;;5.95;4.30;;;17.40;99.90;;;;;;5884912;23;20207;-94
2023/09/04 07:20:39;;;;;;;4.70;4.20;;;17.60;99.90;;;;;;4980298;28;20219;-94
2023/09/04 07:23:06;;;;;;;5.38;4.75;;;17.70;99.90;;;;;;4973851;28;20505;-93
2023/09/04 07:25:35;;;;;;;4.88;4.45;;;17.80;99.90;;;;;;4978174;28;20191;-93
2023/09/04 07:28:02;;;;;;;6.35;4.18;;;17.80;99.90;;;;;;4968225;28;20213;-94
2023/09/04 07:30:28;;;;;;;5.50;4.45;;;18.00;99.90;;;;;;4973267;28;20208;-94
2023/09/04 07:35:32;;;;;;;7.63;3.92;;;18.10;99.90;;;;;;5005445;23;20235;-96
2023/09/04 07:37:59;;;;;;;5.72;3.70;;;18.20;99.90;;;;;;5020876;28;20214;-96
2023/09/04 07:44:07;;;;;;;4.60;4.00;;;18.30;99.70;;;;;;4994857;28;20179;-96
2023/09/04 07:46:34;;;;;;;4.30;3.75;;;18.50;99.30;;;;;;5008791;28;20210;-96
2023/09/04 07:49:01;;;;;;;4.40;3.55;;;18.60;99.10;;;;;;5011235;28;20200;-96
2023/09/04 07:54:13;;;;;;;4.32;3.30;;;18.70;98.70;;;;;;4994977;28;20208;-96
2023/09/04 07:56:40;;;;;;;5.03;4.28;;;18.90;98.50;;;;;;4970612;28;20263;-94
2023/09/04 07:59:07;;;;;;;4.65;4.25;;;18.90;98.50;;;;;;5852294;23;20218;-94
2023/09/04 09:18:02;;;;;;;2.17;1.98;;;29.40;16.30;;;;;;5212683;23;20227;-94
2023/09/04 09:20:33;;;;;;;2.72;2.47;;;29.80;16.60;;;;;;4990877;28;20223;-94
2023/09/04 09:23:00;;;;;;;2.35;2.25;;;30.80;14.30;;;;;;4990259;28;20263;-94
2023/09/04 09:25:28;;;;;;;3.13;2.42;;;31.30;12.60;;;;;;4990638;28;20272;-94
2023/09/04 09:30:34;;;;;;;2.85;2.55;;;31.30;11.80;;;;;;5007652;23;20245;-94
2023/09/04 09:33:19;;;;;;;3.22;2.60;;;31.30;12.20;;;;;;5008810;28;20198;-94
2023/09/04 09:35:46;;;;;;;2.95;2.75;;;31.80;11.10;;;;;;5011760;28;20267;-96
2023/09/04 09:38:13;;;;;;;2.60;2.40;;;31.70;10.70;;;;;;5002790;28;20200;-95
2023/09/04 09:40:40;;;;;;;3.22;2.60;;;31.60;10.60;;;;;;5014038;28;20218;-95
2023/09/04 09:43:08;;;;;;;2.85;2.70;;;31.80;8.70;;;;;;5007154;28;20214;-95
2023/09/04 09:45:36;;;;;;;3.45;2.50;;;31.70;10.00;;;;;;5012127;28;20207;-96
2023/09/04 09:48:13;;;;;;;2.85;2.50;;;30.70;9.80;;;;;;5002963;28;20218;-96
2023/09/04 09:50:41;;;;;;;2.83;2.63;;;29.90;11.10;;;;;;5007001;28;20223;-96
2023/09/04 09:53:12;;;;;;;2.60;2.40;;;30.40;10.00;;;;;;5010060;28;20411;-96
2023/09/04 09:55:39;;;;;;;2.85;2.60;;;30.60;10.80;;;;;;4989898;28;20204;-95
2023/09/04 09:58:09;;;;;;;2.78;2.50;;;31.20;10.40;;;;;;4992318;28;20199;-96
2023/09/04 10:00:37;;;;;;;4.20;2.72;;;30.80;10.30;;;;;;4988094;28;20224;-95
2023/09/04 10:03:04;;;;;;;2.78;2.58;;;31.20;9.30;;;;;;4994537;28;20227;-96
2023/09/04 10:05:38;;;;;;;3.00;2.80;;;31.60;7.30;;;;;;4986585;28;20207;-95
2023/09/04 10:08:08;;;;;;;2.90;2.70;;;31.70;7.80;;;;;;5008836;28;20207;-96
2023/09/04 10:10:41;;;;;;;2.97;2.78;;;32.00;5.60;;;;;;4997245;28;20336;-96
2023/09/04 10:13:15;;;;;;;2.75;2.53;;;32.00;5.70;;;;;;5014993;28;20209;-94
2023/09/04 10:15:46;;;;;;;3.00;2.53;;;31.30;4.20;;;;;;4999982;28;20204;-95
2023/09/04 10:18:17;;;;;;;3.80;2.92;;;31.00;6.00;;;;;;5003776;28;20239;-95
2023/09/04 10:20:46;;;;;;;2.88;2.67;;;30.60;7.30;;;;;;4998773;28;20219;-95
2023/09/04 10:23:15;;;;;;;2.72;2.53;;;31.60;6.50;;;;;;4994275;28;20212;-94
2023/09/04 10:28:19;;;;;;;2.80;2.60;;;30.30;9.20;;;;;;4996196;28;20216;-96
2023/09/04 10:30:53;;;;;;;2.88;2.67;;;30.20;10.50;;;;;;4995412;28;20207;-96
2023/09/04 10:33:21;;;;;;;4.55;2.90;;;31.00;7.10;;;;;;4994924;28;20196;-96
2023/09/04 10:35:49;;;;;;;2.70;2.50;;;30.70;7.30;;;;;;4998461;28;20199;-96
2023/09/04 10:38:17;;;;;;;3.50;2.47;;;30.90;6.90;;;;;;4997443;28;20200;-95
2023/09/04 10:40:44;;;;;;;2.50;2.30;;;30.10;10.10;;;;;;4999584;28;20224;-95
2023/09/04 10:43:12;;;;;;;2.83;2.63;;;29.70;10.90;;;;;;5006700;28;20197;-96
2023/09/04 10:45:39;;;;;;;2.90;2.70;;;30.20;9.10;;;;;;4989896;28;20208;-95
2023/09/04 10:53:31;;;;;;;2.65;2.45;;;29.00;12.30;;;;;;5165298;23;20272;-94
2023/09/04 10:56:11;;;;;;;3.72;2.83;;;29.20;11.80;;;;;;4996857;28;20183;-94
2023/09/04 11:34:51;;;;;;;2.15;2.00;;;26.50;14.90;;;;;;5625896;23;20234;-93
2023/09/04 11:55:28;;;;;;;2.58;2.33;;;26.20;14.70;;;;;;4988128;28;20223;-91
2023/09/04 11:57:56;;;;;;;2.50;2.30;;;26.10;15.60;;;;;;4982844;28;20203;-92
2023/09/04 12:00:23;;;;;;;2.92;2.45;;;26.10;14.70;;;;;;4972771;28;20204;-92
2023/09/04 12:03:23;;;;;;;2.40;2.20;;;26.20;14.80;;;;;;4978831;28;20571;-92
2023/09/04 12:05:52;;;;;;;2.47;2.28;;;26.10;15.00;;;;;;4957635;29;20215;-89
2023/09/04 12:08:19;;;;;;;2.42;2.22;;;26.20;17.20;;;;;;4969342;28;20193;-90
2023/09/04 12:10:49;;;;;;;2.50;2.30;;;26.10;17.20;;;;;;4978225;28;20219;-89
2023/09/04 12:13:17;;;;;;;4.03;2.50;;;26.10;14.70;;;;;;4977981;28;20255;-90
2023/09/04 12:15:44;;;;;;;2.90;2.47;;;26.00;14.70;;;;;;4979580;28;20252;-90
2023/09/04 12:18:12;;;;;;;2.72;2.53;;;25.70;14.50;;;;;;4974946;28;20292;-89
2023/09/04 12:20:41;;;;;;;2.88;2.67;;;25.80;16.90;;;;;;4984249;28;20185;-92
2023/09/04 12:30:08;;;;;;;2.90;2.50;;;25.70;15.00;;;;;;4991899;28;20239;-92
2023/09/04 12:32:41;;;;;;;3.78;2.70;;;25.70;16.70;;;;;;4987673;28;20204;-93
2023/09/04 12:35:17;;;;;;;3.88;2.78;;;25.70;17.00;;;;;;4984571;28;20272;-92
2023/09/04 12:37:51;;;;;;;2.72;2.53;;;25.70;17.40;;;;;;4985937;28;20262;-93
2023/09/04 12:40:38;;;;;;;3.78;2.90;;;25.60;17.80;;;;;;4987819;28;20212;-92
2023/09/04 12:43:05;;;;;;;2.60;2.40;;;25.50;18.00;;;;;;5133464;23;20251;-95
2023/09/04 12:45:57;;;;;;;3.17;2.30;;;25.50;17.80;;;;;;4993970;28;20197;-94
2023/09/04 12:48:24;;;;;;;2.88;2.60;;;25.50;18.50;;;;;;4990445;28;20213;-93
2023/09/04 12:50:52;;;;;;;2.80;2.60;;;25.50;17.00;;;;;;4982733;28;20217;-93
2023/09/04 14:42:04;;;;;;;4.25;3.95;;;24.50;19.80;;;;;;5662256;23;20498;-93
2023/09/04 14:44:31;;;;;;;4.57;3.30;;;24.40;19.40;;;;;;5077789;23;20220;-96
2023/09/04 14:46:58;;;;;;;3.97;3.60;;;24.40;19.90;;;;;;4993367;28;20264;-95
2023/09/04 14:49:25;;;;;;;5.00;4.40;;;24.40;20.00;;;;;;4987271;28;20219;-95
2023/09/04 14:51:52;;;;;;;5.38;3.75;;;24.30;20.60;;;;;;4992223;28;20263;-94
2023/09/04 14:54:22;;;;;;;3.70;3.33;;;24.40;20.20;;;;;;4990137;28;20206;-94
2023/09/04 14:56:49;;;;;;;3.90;3.50;;;24.30;19.20;;;;;;4980799;28;20205;-93
2023/09/04 14:59:18;;;;;;;25.15;22.35;;;24.30;19.80;;;;;;4982185;28;20196;-89
2023/09/04 15:01:44;;;;;;;12.75;11.40;;;24.20;20.30;;;;;;4959490;28;20255;-90
2023/09/04 15:04:12;;;;;;;3.92;3.20;;;24.20;20.30;;;;;;4968264;28;20569;-91
2023/09/04 15:06:41;;;;;;;4.15;3.00;;;24.20;19.60;;;;;;4973956;28;20227;-92
2023/09/04 15:16:45;;;;;;;4.72;3.22;;;24.10;18.60;;;;;;4978435;28;20647;-89
2023/09/04 15:19:13;;;;;;;5.15;4.15;;;24.20;18.40;;;;;;4971514;28;20236;-88
2023/09/04 15:21:45;;;;;;;3.55;3.25;;;24.10;19.30;;;;;;4970769;28;20751;-87
2023/09/04 15:24:18;;;;;;;3.58;3.28;;;24.00;18.50;;;;;;4973454;28;20200;-92
2023/09/04 15:26:50;;;;;;;3.58;3.10;;;24.00;18.80;;;;;;5043782;23;20232;-92
2023/09/04 15:31:56;;;;;;;5.05;4.55;;;24.00;19.90;;;;;;5985637;23;20194;-93
2023/09/04 15:34:28;;;;;;;4.88;3.35;;;23.80;20.00;;;;;;5004416;28;20428;-92
2023/09/04 15:36:55;;;;;;;3.97;3.60;;;23.80;20.70;;;;;;5760260;23;20262;-94
2023/09/04 17:33:08;;;;;;;4.60;3.63;;;21.20;29.80;;;;;;4974888;28;20217;-90
2023/09/04 17:35:35;;;;;;;4.85;3.65;;;21.00;31.20;;;;;;4975318;28;20204;-92
2023/09/04 17:38:05;;;;;;;4.07;3.28;;;20.90;32.80;;;;;;4976585;28;20184;-90
2023/09/04 17:40:42;;;;;;;7.97;3.60;;;20.80;33.80;;;;;;4976363;28;20220;-89
2023/09/04 17:43:09;;;;;;;8.27;3.92;;;20.70;34.50;;;;;;4977570;28;20228;-89
2023/09/04 17:45:36;;;;;;;45.55;23.75;;;20.60;37.20;;;;;;4975543;28;20212;-90
2023/09/04 17:54:04;;;;;;;4.10;3.55;;;20.40;37.90;;;;;;5084463;23;20249;-88
2023/09/04 18:03:20;;;;;;;7.82;3.95;;;20.20;39.90;;;;;;4956254;28;20212;-92
2023/09/04 18:05:46;;;;;;;6.70;3.90;;;20.00;44.10;;;;;;4955199;28;20202;-91
2023/09/04 18:08:14;;;;;;;41.38;22.00;;;20.00;47.10;;;;;;4952641;28;20201;-90
2023/09/04 18:10:45;;;;;;;6.45;4.32;;;19.90;51.20;;;;;;4957009;29;20241;-91
2023/09/04 18:13:15;;;;;;;29.67;16.08;;;19.80;52.50;;;;;;4952178;29;20209;-90
2023/09/04 18:15:42;;;;;;;52.50;26.33;;;19.80;55.70;;;;;;4953468;28;20273;-93
2023/09/04 18:18:09;;;;;;;23.40;11.57;;;19.70;55.60;;;;;;4968617;28;20260;-92
2023/09/04 18:20:40;;;;;;;43.13;21.92;;;19.60;58.70;;;;;;4968360;28;20193;-93
2023/09/04 18:23:09;;;;;;;22.05;12.23;;;19.50;61.60;;;;;;4969793;28;20320;-92
2023/09/04 18:25:36;;;;;;;30.98;17.92;;;19.50;66.90;;;;;;4963827;28;20194;-92
2023/09/04 18:28:05;;;;;;;10.63;5.50;;;19.40;68.60;;;;;;4955566;28;20275;-90
2023/09/04 18:30:32;;;;;;;49.58;25.15;;;19.30;70.10;;;;;;4959947;28;20201;-93
2023/09/04 18:32:59;;;;;;;34.13;17.98;;;19.30;75.40;;;;;;4960083;28;20288;-93
2023/09/04 18:35:28;;;;;;;17.20;9.23;;;19.20;75.00;;;;;;4958783;28;20201;-94
2023/09/04 18:37:55;;;;;;;30.80;14.75;;;19.10;76.60;;;;;;4961596;28;20418;-93
2023/09/04 18:40:23;;;;;;;30.48;16.05;;;19.00;77.00;;;;;;4951113;28;20558;-93
2023/09/04 18:42:50;;;;;;;19.80;10.70;;;19.00;80.10;;;;;;4953289;28;20260;-93
2023/09/04 18:45:19;;;;;;;18.10;10.98;;;18.90;80.00;;;;;;4957551;28;20293;-91
2023/09/04 18:47:45;;;;;;;10.10;7.18;;;18.90;80.00;;;;;;4971949;28;20269;-93
2023/09/04 18:50:14;;;;;;;4.88;4.35;;;18.70;79.90;;;;;;4965159;28;20205;-93
2023/09/04 18:52:40;;;;;;;6.53;4.72;;;18.60;79.90;;;;;;4960782;28;20217;-92
2023/09/04 18:55:19;;;;;;;12.93;6.15;;;18.40;83.20;;;;;;4962074;28;20301;-89
2023/09/04 18:57:46;;;;;;;14.35;7.97;;;18.30;85.30;;;;;;4965957;28;20221;-94
2023/09/04 19:00:15;;;;;;;13.85;7.85;;;18.20;86.40;;;;;;5113564;23;20245;-92
2023/09/04 19:02:43;;;;;;;5.90;4.55;;;18.20;87.00;;;;;;4974961;28;20559;-92
2023/09/04 19:05:12;;;;;;;13.98;8.90;;;18.10;87.40;;;;;;4974481;28;20201;-92
2023/09/04 19:07:39;;;;;;;5.55;4.40;;;18.00;88.40;;;;;;4974586;28;20650;-93
2023/09/04 19:10:07;;;;;;;6.80;4.88;;;18.00;88.10;;;;;;4980743;28;20192;-92
2023/09/04 19:12:34;;;;;;;9.23;6.15;;;18.00;87.30;;;;;;4979537;28;20205;-91
2023/09/04 19:15:01;;;;;;;4.63;4.10;;;18.00;87.10;;;;;;4966032;28;20204;-91
2023/09/04 19:17:28;;;;;;;4.95;4.30;;;18.00;79.80;;;;;;4973440;28;20683;-93
2023/09/04 19:19:56;;;;;;;8.73;6.18;;;18.10;80.80;;;;;;4955866;28;20672;-92
2023/09/04 19:22:23;;;;;;;6.50;4.22;;;18.10;79.50;;;;;;4976332;28;20220;-91
2023/09/04 19:24:50;;;;;;;6.38;4.75;;;18.10;73.50;;;;;;4951630;28;20207;-92
2023/09/04 19:27:18;;;;;;;5.47;4.40;;;18.00;73.30;;;;;;4966447;28;20741;-92
2023/09/04 19:29:45;;;;;;;5.20;4.30;;;18.00;72.10;;;;;;4976094;28;20225;-91
2023/09/04 19:32:12;;;;;;;6.88;4.80;;;18.00;71.80;;;;;;4972941;28;20203;-94
2023/09/04 19:34:39;;;;;;;10.20;6.07;;;18.00;73.20;;;;;;4978929;28;20208;-91
2023/09/04 19:37:11;;;;;;;7.18;5.38;;;17.90;73.40;;;;;;4974366;28;20661;-93
2023/09/04 19:39:38;;;;;;;6.22;5.05;;;17.90;71.40;;;;;;4974317;28;20201;-91
2023/09/04 19:42:05;;;;;;;5.47;4.25;;;17.90;70.10;;;;;;4970862;28;20218;-91
2023/09/04 19:44:32;;;;;;;8.90;5.65;;;17.80;67.20;;;;;;4969847;28;20600;-91
2023/09/04 19:47:00;;;;;;;6.97;4.07;;;17.80;69.00;;;;;;4975486;28;20213;-94
2023/09/04 19:49:27;;;;;;;6.68;4.85;;;17.70;65.80;;;;;;4969267;28;20206;-91
2023/09/04 19:51:54;;;;;;;5.93;4.07;;;17.60;66.60;;;;;;4974482;28;20220;-92
2023/09/04 19:54:22;;;;;;;5.78;3.35;;;17.60;67.20;;;;;;4955831;28;20708;-92
2023/09/04 19:56:49;;;;;;;5.25;3.80;;;17.50;62.10;;;;;;4970258;28;20205;-91
2023/09/04 19:59:16;;;;;;;5.75;3.65;;;17.50;64.10;;;;;;4966989;28;20243;-93
2023/09/04 20:01:43;;;;;;;6.40;4.72;;;17.40;59.90;;;;;;4970255;28;20211;-91
2023/09/04 20:04:13;;;;;;;6.75;4.78;;;17.40;64.30;;;;;;4970726;28;20228;-92
2023/09/04 20:06:40;;;;;;;4.05;3.30;;;17.40;65.40;;;;;;4971691;28;20201;-91
2023/09/04 20:09:09;;;;;;;4.35;3.60;;;17.30;63.80;;;;;;4954726;28;20709;-92
2023/09/04 20:11:40;;;;;;;4.13;3.40;;;17.30;61.60;;;;;;4969812;28;20193;-91
2023/09/04 20:14:07;;;;;;;7.25;4.70;;;17.30;57.20;;;;;;4967531;28;20296;-91
2023/09/04 20:19:16;;;;;;;8.88;4.28;;;17.40;53.90;;;;;;4968319;28;20251;-92
2023/09/04 20:21:43;;;;;;;5.72;4.35;;;17.30;53.50;;;;;;4988681;28;20207;-92
2023/09/04 20:24:10;;;;;;;28.75;22.15;;;17.40;53.50;;;;;;4987947;28;20216;-92
2023/09/04 20:29:19;;;;;;;26.25;19.42;;;17.70;62.80;;;;;;4970416;28;20276;-91
2023/09/04 20:31:46;;;;;;;11.88;8.77;;;17.80;53.90;;;;;;4974542;28;20760;-91
2023/09/04 20:34:13;;;;;;;12.27;10.18;;;17.80;45.50;;;;;;4972793;28;20204;-92
2023/09/04 20:36:41;;;;;;;9.05;7.20;;;17.70;43.90;;;;;;4971761;28;20201;-92
2023/09/04 20:39:08;;;;;;;24.67;19.35;;;17.60;47.30;;;;;;4971124;28;20216;-91
2023/09/04 20:41:35;;;;;;;9.73;7.28;;;17.70;53.80;;;;;;4964676;28;20229;-91
2023/09/04 20:44:05;;;;;;;6.93;3.33;;;17.80;47.40;;;;;;4967690;28;20221;-92